createdAt,value
2023-03-29T00:01:00.154Z,81.06
2023-03-29T00:03:27.943Z,80.82
2023-03-29T00:06:03.041Z,80.44
2023-03-29T00:08:32.241Z,80.96
2023-03-29T00:10:59.478Z,80.62
2023-03-29T00:13:27.466Z,80.79
2023-03-29T00:15:54.757Z,80.87
2023-03-29T00:18:21.437Z,81.11
2023-03-29T00:20:56.583Z,81.20
2023-03-29T00:23:23.563Z,81.00
2023-03-29T00:25:53.388Z,81.47
2023-03-29T00:28:20.262Z,81.41
2023-03-29T00:30:47.308Z,81.24
2023-03-29T00:33:14.780Z,81.22
2023-03-29T00:35:43.549Z,81.15
2023-03-29T00:38:10.109Z,81.71
2023-03-29T00:40:43.865Z,81.67
2023-03-29T00:43:12.530Z,81.63
2023-03-29T00:45:39.206Z,81.66
2023-03-29T00:48:11.198Z,81.36
2023-03-29T00:50:41.674Z,81.53
2023-03-29T00:53:20.024Z,81.94
2023-03-29T00:55:53.340Z,81.64
2023-03-29T00:58:28.451Z,81.38
2023-03-29T01:01:08.777Z,82.11
2023-03-29T01:03:46.248Z,81.47
2023-03-29T01:06:16.246Z,81.41
2023-03-29T01:08:55.296Z,81.05
2023-03-29T01:11:27.513Z,80.99
2023-03-29T01:14:03.674Z,81.03
2023-03-29T01:16:33.150Z,80.63
2023-03-29T01:19:02.322Z,80.90
2023-03-29T01:21:51.604Z,80.27
2023-03-29T01:24:38.135Z,80.65
2023-03-29T01:27:12.600Z,80.44
2023-03-29T01:29:49.259Z,80.43
2023-03-29T01:32:22.368Z,80.66
2023-03-29T01:35:10.470Z,80.49
2023-03-29T01:37:46.163Z,79.52
2023-03-29T01:40:12.799Z,79.09
2023-03-29T01:42:52.049Z,79.23
2023-03-29T01:45:24.875Z,79.85
2023-03-29T01:47:59.876Z,79.44
2023-03-29T01:50:50.900Z,79.19
2023-03-29T01:53:25.425Z,79.59
2023-03-29T01:55:56.029Z,79.50
2023-03-29T01:58:29.652Z,79.66
2023-03-29T02:00:58.185Z,79.20
2023-03-29T02:03:28.170Z,79.40
2023-03-29T02:05:57.044Z,79.34
2023-03-29T02:08:24.712Z,79.03
2023-03-29T02:10:52.316Z,79.23
2023-03-29T02:13:19.573Z,79.13
2023-03-29T02:15:47.527Z,79.52
2023-03-29T02:18:17.740Z,79.71
2023-03-29T02:20:48.450Z,79.91
2023-03-29T02:23:24.673Z,79.70
2023-03-29T02:25:53.788Z,80.23
2023-03-29T02:28:23.245Z,80.32
2023-03-29T02:31:04.713Z,80.17
2023-03-29T02:33:53.143Z,80.43
2023-03-29T02:36:25.064Z,80.90
2023-03-29T02:38:53.326Z,80.62
2023-03-29T02:41:21.936Z,80.36
2023-03-29T02:43:49.569Z,80.64
2023-03-29T02:46:18.629Z,80.63
2023-03-29T02:48:48.557Z,81.42
2023-03-29T02:51:20.531Z,81.60
2023-03-29T02:53:53.782Z,81.58
2023-03-29T02:56:20.861Z,81.44
2023-03-29T02:58:47.506Z,81.36
2023-03-29T03:01:16.223Z,81.62
2023-03-29T03:03:43.169Z,81.78
2023-03-29T03:06:09.784Z,81.52
2023-03-29T03:08:36.520Z,81.82
2023-03-29T03:11:03.313Z,81.40
2023-03-29T03:13:38.719Z,81.80
2023-03-29T03:16:05.698Z,81.38
2023-03-29T03:18:32.651Z,81.78
2023-03-29T03:21:02.149Z,81.55
2023-03-29T03:23:29.601Z,81.89
2023-03-29T03:25:57.055Z,81.78
2023-03-29T03:28:24.385Z,82.22
2023-03-29T03:30:51.397Z,81.92
2023-03-29T03:33:19.197Z,82.37
2023-03-29T03:35:47.907Z,82.37
2023-03-29T03:38:16.358Z,82.61
2023-03-29T03:40:43.406Z,82.45
2023-03-29T03:43:10.241Z,82.42
2023-03-29T03:45:36.832Z,82.72
2023-03-29T03:48:03.501Z,82.45
2023-03-29T03:50:30.034Z,82.49
2023-03-29T03:52:56.602Z,82.32
2023-03-29T03:55:24.012Z,82.26
2023-03-29T03:57:52.020Z,82.25
2023-03-29T04:00:19.678Z,82.73
2023-03-29T04:02:48.359Z,82.94
2023-03-29T04:05:16.426Z,82.80
2023-03-29T04:07:43.534Z,83.01
2023-03-29T04:10:11.139Z,83.22
2023-03-29T04:12:38.673Z,83.23
2023-03-29T04:15:06.745Z,83.28
2023-03-29T04:17:37.026Z,83.29
2023-03-29T04:20:10.313Z,83.05
2023-03-29T04:22:37.077Z,82.50
2023-03-29T04:25:03.936Z,82.52
2023-03-29T04:27:30.681Z,82.83
2023-03-29T04:29:57.306Z,83.03
2023-03-29T04:32:24.857Z,83.48
2023-03-29T04:34:51.468Z,82.96
2023-03-29T04:37:22.014Z,82.46
2023-03-29T04:39:49.874Z,82.67
2023-03-29T04:42:17.034Z,82.51
2023-03-29T04:44:43.862Z,82.67
2023-03-29T04:47:13.184Z,82.77
2023-03-29T04:49:40.407Z,82.96
2023-03-29T04:52:07.946Z,82.97
2023-03-29T04:54:34.546Z,83.07
2023-03-29T04:57:01.119Z,82.72
2023-03-29T04:59:27.698Z,83.11
2023-03-29T05:01:54.767Z,83.36
2023-03-29T05:04:21.522Z,83.06
2023-03-29T05:06:49.001Z,83.31
2023-03-29T05:09:15.925Z,83.25
2023-03-29T05:11:42.708Z,83.29
2023-03-29T05:14:10.506Z,83.13
2023-03-29T05:16:38.156Z,83.28
2023-03-29T05:19:04.965Z,83.30
2023-03-29T05:21:31.751Z,83.05
2023-03-29T05:23:58.765Z,83.11
2023-03-29T05:26:25.551Z,83.35
2023-03-29T05:28:52.379Z,82.79
2023-03-29T05:31:19.913Z,83.32
2023-03-29T05:33:57.385Z,83.32
2023-03-29T05:36:24.703Z,83.13
2023-03-29T05:38:55.093Z,83.45
2023-03-29T05:41:22.786Z,83.32
2023-03-29T05:43:49.439Z,82.91
2023-03-29T05:46:16.440Z,83.12
2023-03-29T05:48:43.110Z,83.04
2023-03-29T05:51:10.085Z,83.19
2023-03-29T05:53:36.852Z,83.46
2023-03-29T05:56:04.059Z,83.48
2023-03-29T05:58:30.815Z,83.50
2023-03-29T06:00:57.738Z,83.33
2023-03-29T06:03:27.630Z,83.28
2023-03-29T06:05:58.707Z,83.24
2023-03-29T06:08:27.632Z,83.10
2023-03-29T06:11:04.611Z,83.28
2023-03-29T06:13:34.107Z,83.55
2023-03-29T06:16:01.500Z,83.51
2023-03-29T06:18:28.145Z,83.81
2023-03-29T06:20:54.820Z,83.54
2023-03-29T06:23:22.286Z,83.08
2023-03-29T06:25:51.374Z,83.56
2023-03-29T06:28:19.212Z,83.34
2023-03-29T06:30:46.159Z,83.36
2023-03-29T06:33:14.240Z,82.74
2023-03-29T06:35:44.488Z,83.03
2023-03-29T06:38:11.342Z,83.29
2023-03-29T06:40:38.253Z,83.17
2023-03-29T06:43:06.734Z,82.69
2023-03-29T06:45:36.143Z,82.53
2023-03-29T06:48:03.788Z,83.10
2023-03-29T06:50:31.143Z,82.97
2023-03-29T06:52:57.993Z,82.67
2023-03-29T06:55:26.005Z,83.13
2023-03-29T06:57:54.499Z,83.11
2023-03-29T07:00:28.972Z,83.10
2023-03-29T07:02:58.031Z,83.25
2023-03-29T07:05:31.661Z,83.24
2023-03-29T07:08:14.022Z,83.74
2023-03-29T07:10:43.057Z,84.36
2023-03-29T07:13:13.264Z,83.94
2023-03-29T07:15:42.108Z,84.52
2023-03-29T07:18:09.877Z,84.23
2023-03-29T07:20:38.723Z,84.25
2023-03-29T07:23:06.912Z,84.20
2023-03-29T07:25:34.094Z,84.04
2023-03-29T07:28:02.597Z,83.97
2023-03-29T07:30:32.172Z,84.08
2023-03-29T07:33:00.493Z,84.21
2023-03-29T07:35:28.382Z,84.29
2023-03-29T07:37:55.858Z,83.77
2023-03-29T07:40:24.016Z,83.97
2023-03-29T07:42:54.172Z,84.55
2023-03-29T07:45:26.707Z,84.35
2023-03-29T07:47:57.163Z,84.35
2023-03-29T07:50:24.811Z,84.64
2023-03-29T07:52:51.453Z,84.01
2023-03-29T07:55:18.600Z,83.71
2023-03-29T07:57:45.432Z,83.06
2023-03-29T08:00:20.096Z,83.27
2023-03-29T08:02:49.999Z,83.10
2023-03-29T08:05:23.430Z,82.56
2023-03-29T08:07:56.544Z,82.28
2023-03-29T08:10:23.395Z,82.26
2023-03-29T08:12:50.654Z,82.39
2023-03-29T08:15:17.468Z,82.67
2023-03-29T08:17:44.570Z,82.46
2023-03-29T08:20:27.581Z,82.63
2023-03-29T08:22:57.281Z,82.48
2023-03-29T08:25:24.016Z,82.72
2023-03-29T08:27:50.736Z,82.46
2023-03-29T08:30:17.465Z,82.12
2023-03-29T08:32:45.283Z,82.32
2023-03-29T08:35:12.873Z,82.28
2023-03-29T08:37:39.565Z,82.62
2023-03-29T08:40:06.876Z,82.28
2023-03-29T08:42:48.162Z,82.67
2023-03-29T08:45:18.816Z,82.44
2023-03-29T08:47:53.779Z,82.84
2023-03-29T08:50:25.946Z,82.89
2023-03-29T08:52:57.610Z,82.78
2023-03-29T08:55:32.804Z,82.83
2023-03-29T08:58:02.561Z,82.69
2023-03-29T09:00:42.911Z,82.94
2023-03-29T09:03:28.766Z,82.83
2023-03-29T09:06:02.902Z,82.87
2023-03-29T09:08:29.771Z,83.04
2023-03-29T09:11:07.110Z,83.37
2023-03-29T09:13:53.032Z,82.72
2023-03-29T09:16:38.891Z,82.98
2023-03-29T09:19:17.731Z,83.27
2023-03-29T09:22:20.269Z,83.60
2023-03-29T09:25:03.308Z,83.50
2023-03-29T09:27:51.491Z,83.46
2023-03-29T09:30:34.957Z,83.58
2023-03-29T09:33:13.210Z,83.12
2023-03-29T09:35:52.225Z,83.38
2023-03-29T09:38:30.508Z,83.53
2023-03-29T09:41:06.778Z,83.35
2023-03-29T09:43:40.788Z,82.76
2023-03-29T09:46:18.557Z,83.18
2023-03-29T09:48:46.517Z,83.30
2023-03-29T09:51:14.484Z,83.32
2023-03-29T09:53:41.288Z,83.03
2023-03-29T09:56:08.692Z,83.09
2023-03-29T09:58:36.215Z,82.95
2023-03-29T10:01:10.052Z,82.83
2023-03-29T10:03:37.026Z,82.95
2023-03-29T10:06:06.458Z,82.73
2023-03-29T10:08:51.733Z,83.14
2023-03-29T10:11:28.782Z,82.92
2023-03-29T10:14:00.334Z,82.62
2023-03-29T10:16:36.327Z,82.40
2023-03-29T10:19:19.203Z,82.70
2023-03-29T10:21:49.157Z,82.20
2023-03-29T10:24:23.985Z,81.94
2023-03-29T10:26:55.708Z,82.18
2023-03-29T10:29:24.735Z,82.36
2023-03-29T10:31:52.083Z,82.42
2023-03-29T10:34:20.071Z,82.44
2023-03-29T10:36:57.557Z,82.16
2023-03-29T10:39:27.912Z,82.18
2023-03-29T10:41:55.053Z,82.46
2023-03-29T10:44:32.764Z,82.81
2023-03-29T10:47:17.401Z,82.73
2023-03-29T10:49:50.889Z,82.90
2023-03-29T10:52:18.001Z,82.90
2023-03-29T10:54:45.670Z,82.63
2023-03-29T10:57:17.868Z,82.46
2023-03-29T11:00:08.077Z,82.96
2023-03-29T11:02:47.889Z,83.35
2023-03-29T11:05:15.679Z,83.69
2023-03-29T11:07:56.285Z,83.67
2023-03-29T11:10:31.369Z,83.78
2023-03-29T11:13:09.414Z,83.99
2023-03-29T11:15:54.798Z,84.17
2023-03-29T11:18:28.483Z,84.60
2023-03-29T11:21:02.110Z,84.65
2023-03-29T11:23:28.787Z,84.85
2023-03-29T11:26:08.470Z,84.95
2023-03-29T11:28:54.086Z,85.33
2023-03-29T11:31:32.675Z,85.87
2023-03-29T11:34:24.771Z,85.89
2023-03-29T11:36:57.387Z,85.53
2023-03-29T11:39:35.437Z,85.23
2023-03-29T11:42:14.500Z,85.06
2023-03-29T11:44:43.886Z,85.15
2023-03-29T11:47:17.928Z,85.17
2023-03-29T11:49:56.123Z,84.85
2023-03-29T11:52:29.016Z,84.67
2023-03-29T11:55:02.771Z,84.87
2023-03-29T11:57:37.115Z,84.43
2023-03-29T12:00:07.042Z,84.08
2023-03-29T12:02:39.616Z,84.36
2023-03-29T12:05:18.878Z,84.33
2023-03-29T12:07:53.199Z,83.85
2023-03-29T12:10:21.719Z,83.97
2023-03-29T12:13:09.424Z,83.91
2023-03-29T12:15:45.173Z,84.12
2023-03-29T12:18:22.965Z,83.60
2023-03-29T12:20:57.599Z,83.85
2023-03-29T12:23:24.410Z,84.40
2023-03-29T12:26:03.033Z,84.14
2023-03-29T12:28:34.509Z,84.57
2023-03-29T12:31:07.046Z,84.34
2023-03-29T12:33:40.862Z,84.34
2023-03-29T12:36:24.942Z,84.61
2023-03-29T12:38:52.776Z,84.70
2023-03-29T12:41:22.199Z,84.99
2023-03-29T12:43:49.718Z,85.18
2023-03-29T12:46:21.012Z,85.19
2023-03-29T12:48:51.264Z,85.35
2023-03-29T12:51:21.693Z,85.25
2023-03-29T12:53:52.611Z,86.00
2023-03-29T12:56:23.889Z,85.58
2023-03-29T12:58:53.500Z,85.84
2023-03-29T13:01:24.390Z,86.34
2023-03-29T13:04:01.991Z,86.05
2023-03-29T13:06:34.396Z,85.97
2023-03-29T13:09:21.574Z,85.54
2023-03-29T13:12:43.147Z,85.44
2023-03-29T13:15:16.888Z,85.67
2023-03-29T13:18:04.532Z,85.84
2023-03-29T13:20:46.525Z,85.69
2023-03-29T13:23:27.180Z,85.38
2023-03-29T13:26:00.299Z,85.04
2023-03-29T13:28:39.341Z,85.40
2023-03-29T13:31:21.400Z,85.28
2023-03-29T13:34:03.199Z,84.83
2023-03-29T13:36:37.745Z,84.92
2023-03-29T13:39:07.588Z,84.94
2023-03-29T13:41:38.144Z,85.15
2023-03-29T13:44:17.311Z,85.07
2023-03-29T13:46:47.529Z,85.11
2023-03-29T13:49:21.205Z,84.89
2023-03-29T13:52:12.490Z,84.51
2023-03-29T13:54:56.357Z,84.56
2023-03-29T13:57:38.553Z,84.54
2023-03-29T14:00:18.053Z,84.30
2023-03-29T14:02:51.635Z,84.37
2023-03-29T14:05:23.367Z,84.03
2023-03-29T14:07:53.008Z,83.62
2023-03-29T14:10:26.147Z,83.76
2023-03-29T14:12:53.811Z,83.50
2023-03-29T14:15:25.745Z,83.47
2023-03-29T14:17:58.299Z,83.53
2023-03-29T14:20:27.517Z,83.50
2023-03-29T14:22:54.201Z,83.16
2023-03-29T14:25:29.472Z,83.36
2023-03-29T14:27:56.425Z,83.28
2023-03-29T14:30:28.237Z,83.32
2023-03-29T14:32:56.844Z,83.44
2023-03-29T14:35:31.445Z,83.41
2023-03-29T14:37:59.567Z,83.38
2023-03-29T14:40:27.695Z,83.60
2023-03-29T14:42:55.201Z,83.44
2023-03-29T14:45:23.914Z,83.44
2023-03-29T14:47:51.588Z,83.20
2023-03-29T14:50:24.529Z,83.06
2023-03-29T14:52:52.476Z,82.96
2023-03-29T14:55:23.846Z,82.78
2023-03-29T14:57:54.273Z,82.72
2023-03-29T15:00:28.116Z,82.54
2023-03-29T15:02:58.053Z,82.75
2023-03-29T15:05:30.306Z,82.50
2023-03-29T15:07:57.072Z,82.34
2023-03-29T15:10:24.175Z,82.69
2023-03-29T15:12:51.336Z,82.10
2023-03-29T15:15:18.131Z,81.77
2023-03-29T15:17:52.358Z,82.26
2023-03-29T15:20:26.054Z,81.39
2023-03-29T15:22:56.569Z,81.17
2023-03-29T15:25:27.133Z,81.30
2023-03-29T15:28:00.239Z,81.77
2023-03-29T15:30:39.513Z,82.12
2023-03-29T15:33:16.450Z,81.06
2023-03-29T15:35:48.420Z,81.25
2023-03-29T15:38:14.952Z,81.66
2023-03-29T15:40:41.580Z,81.71
2023-03-29T15:43:08.201Z,81.58
2023-03-29T15:45:35.040Z,81.54
2023-03-29T15:48:04.685Z,81.61
2023-03-29T15:50:32.539Z,81.26
2023-03-29T15:53:08.670Z,81.23
2023-03-29T15:55:44.756Z,80.51
2023-03-29T15:58:17.193Z,80.58
2023-03-29T16:00:48.628Z,80.61
2023-03-29T16:03:16.160Z,80.85
2023-03-29T16:05:43.982Z,80.38
2023-03-29T16:08:11.994Z,80.52
2023-03-29T16:10:39.344Z,80.36
2023-03-29T16:13:06.423Z,80.56
2023-03-29T16:15:34.622Z,80.51
2023-03-29T16:18:01.221Z,80.95
2023-03-29T16:20:27.810Z,80.56
2023-03-29T16:22:55.182Z,80.52
2023-03-29T16:25:24.235Z,80.60
2023-03-29T16:27:52.576Z,80.97
2023-03-29T16:30:19.810Z,81.22
2023-03-29T16:32:46.451Z,80.95
2023-03-29T16:35:20.590Z,80.98
2023-03-29T16:37:48.519Z,81.24
2023-03-29T16:40:16.312Z,81.10
2023-03-29T16:42:42.900Z,81.31
2023-03-29T16:45:15.110Z,81.27
2023-03-29T16:47:48.139Z,81.32
2023-03-29T16:50:18.848Z,81.27
2023-03-29T16:52:48.931Z,81.42
2023-03-29T16:55:18.985Z,81.87
2023-03-29T16:57:47.967Z,81.81
2023-03-29T17:00:16.430Z,82.18
2023-03-29T17:02:44.600Z,82.39
2023-03-29T17:05:12.869Z,82.36
2023-03-29T17:07:39.705Z,82.53
2023-03-29T17:10:08.236Z,82.46
2023-03-29T17:12:35.533Z,82.62
2023-03-29T17:15:02.946Z,82.82
2023-03-29T17:17:29.576Z,82.90
2023-03-29T17:19:56.735Z,83.40
2023-03-29T17:22:25.279Z,83.54
2023-03-29T17:24:51.925Z,83.37
2023-03-29T17:27:19.013Z,83.64
2023-03-29T17:29:45.640Z,83.77
2023-03-29T17:32:12.203Z,84.05
2023-03-29T17:34:38.940Z,84.00
2023-03-29T17:37:05.611Z,84.34
2023-03-29T17:39:33.152Z,84.32
2023-03-29T17:41:59.723Z,84.39
2023-03-29T17:44:27.060Z,84.75
2023-03-29T17:46:53.720Z,84.85
2023-03-29T17:49:20.773Z,84.87
2023-03-29T17:51:47.491Z,84.74
2023-03-29T17:54:13.970Z,85.28
2023-03-29T17:56:40.800Z,85.38
2023-03-29T17:59:07.355Z,85.38
2023-03-29T18:01:34.875Z,85.66
2023-03-29T18:04:02.427Z,85.50
2023-03-29T18:06:29.071Z,85.81
2023-03-29T18:08:56.734Z,86.00
2023-03-29T18:11:24.673Z,86.26
2023-03-29T18:13:52.575Z,86.19
2023-03-29T18:16:21.616Z,86.28
2023-03-29T18:18:48.540Z,86.25
2023-03-29T18:21:16.640Z,86.23
2023-03-29T18:23:47.069Z,86.41
2023-03-29T18:26:15.402Z,86.24
2023-03-29T18:28:43.914Z,86.54
2023-03-29T18:31:10.582Z,86.63
2023-03-29T18:33:37.299Z,86.62
2023-03-29T18:36:09.170Z,86.75
2023-03-29T18:38:40.383Z,87.02
2023-03-29T18:41:08.775Z,87.21
2023-03-29T18:43:37.050Z,87.20
2023-03-29T18:46:04.038Z,87.21
2023-03-29T18:48:31.344Z,87.25
2023-03-29T18:50:58.461Z,87.39
2023-03-29T18:53:39.319Z,87.65
2023-03-29T18:56:06.662Z,87.89
2023-03-29T18:58:33.630Z,88.09
2023-03-29T19:01:02.871Z,88.05
2023-03-29T19:03:30.126Z,87.81
2023-03-29T19:05:56.937Z,87.46
2023-03-29T19:08:25.834Z,88.14
2023-03-29T19:10:53.631Z,88.44
2023-03-29T19:13:23.480Z,88.26
2023-03-29T19:15:51.835Z,88.35
2023-03-29T19:18:18.540Z,88.40
2023-03-29T19:20:45.561Z,88.67
2023-03-29T19:23:14.206Z,88.78
2023-03-29T19:25:40.805Z,88.40
2023-03-29T19:28:08.671Z,88.76
2023-03-29T19:30:36.461Z,88.96
2023-03-29T19:33:03.205Z,89.18
2023-03-29T19:35:30.039Z,89.34
2023-03-29T19:37:57.728Z,89.26
2023-03-29T19:40:24.485Z,89.26
2023-03-29T19:42:51.146Z,89.25
2023-03-29T19:45:18.136Z,89.49
2023-03-29T19:47:47.753Z,89.47
2023-03-29T19:50:14.498Z,89.48
2023-03-29T19:52:41.293Z,89.91
2023-03-29T19:55:08.410Z,90.02
2023-03-29T19:57:35.093Z,90.15
2023-03-29T20:00:02.024Z,90.07
2023-03-29T20:02:28.725Z,89.90
2023-03-29T20:04:57.772Z,90.43
2023-03-29T20:07:24.384Z,90.45
2023-03-29T20:09:51.035Z,91.03
2023-03-29T20:12:17.762Z,91.17
2023-03-29T20:14:44.383Z,91.38
2023-03-29T20:17:12.127Z,91.30
2023-03-29T20:19:43.954Z,91.23
2023-03-29T20:22:12.214Z,91.24
2023-03-29T20:24:38.866Z,91.50
2023-03-29T20:27:05.527Z,91.60
2023-03-29T20:29:33.231Z,91.83
2023-03-29T20:32:02.135Z,91.73
2023-03-29T20:34:28.996Z,92.13
2023-03-29T20:37:00.961Z,92.18
2023-03-29T20:39:31.738Z,92.56
2023-03-29T20:41:59.066Z,92.07
2023-03-29T20:44:28.416Z,92.20
2023-03-29T20:47:03.411Z,92.40
2023-03-29T20:49:37.074Z,92.52
2023-03-29T20:52:10.788Z,92.71
2023-03-29T20:54:38.770Z,93.20
2023-03-29T20:57:06.848Z,93.49
2023-03-29T20:59:38.077Z,93.78
2023-03-29T21:02:04.873Z,94.05
2023-03-29T21:04:31.659Z,94.13
2023-03-29T21:07:00.371Z,94.43
2023-03-29T21:09:28.265Z,94.25
2023-03-29T21:11:54.907Z,94.63
2023-03-29T21:14:22.225Z,94.61
2023-03-29T21:16:49.384Z,94.57
2023-03-29T21:19:16.591Z,94.57
2023-03-29T21:21:44.869Z,94.93
2023-03-29T21:24:13.816Z,94.73
2023-03-29T21:26:41.186Z,95.08
2023-03-29T21:29:08.044Z,94.73
2023-03-29T21:31:35.926Z,95.13
2023-03-29T21:34:02.786Z,94.86
2023-03-29T21:36:29.422Z,94.52
2023-03-29T21:39:06.919Z,94.46
2023-03-29T21:41:33.840Z,94.79
2023-03-29T21:44:00.720Z,94.54
2023-03-29T21:46:27.454Z,94.45
2023-03-29T21:48:54.045Z,94.50
2023-03-29T21:51:20.740Z,94.07
2023-03-29T21:53:47.507Z,94.55
2023-03-29T21:56:14.092Z,94.05
2023-03-29T21:58:40.987Z,94.55
2023-03-29T22:01:10.037Z,94.19
2023-03-29T22:03:37.841Z,94.27
2023-03-29T22:06:09.358Z,94.66
2023-03-29T22:08:38.977Z,94.17
2023-03-29T22:11:08.606Z,93.78
2023-03-29T22:13:35.624Z,93.75
2023-03-29T22:16:03.951Z,93.86
2023-03-29T22:18:43.236Z,94.01
2023-03-29T22:21:13.742Z,94.15
2023-03-29T22:23:41.830Z,94.27
2023-03-29T22:26:12.208Z,93.86
2023-03-29T22:28:39.611Z,94.25
2023-03-29T22:31:10.795Z,93.91
2023-03-29T22:33:48.642Z,93.91
2023-03-29T22:36:18.921Z,93.81
2023-03-29T22:38:47.829Z,93.73
2023-03-29T22:41:15.818Z,93.52
2023-03-29T22:43:42.859Z,93.91
2023-03-29T22:46:11.707Z,93.43
2023-03-29T22:48:38.845Z,93.23
2023-03-29T22:51:06.345Z,93.20
2023-03-29T22:53:34.805Z,92.96
2023-03-29T22:56:01.562Z,93.17
2023-03-29T22:58:29.522Z,92.85
2023-03-29T23:00:57.611Z,93.14
2023-03-29T23:03:25.508Z,92.90
2023-03-29T23:05:54.997Z,92.76
2023-03-29T23:08:22.687Z,92.31
2023-03-29T23:10:49.298Z,92.39
2023-03-29T23:13:20.547Z,92.45
2023-03-29T23:15:48.928Z,92.07
2023-03-29T23:18:18.339Z,92.17
2023-03-29T23:20:47.270Z,91.77
2023-03-29T23:23:16.498Z,91.86
2023-03-29T23:25:45.736Z,91.94
2023-03-29T23:28:13.847Z,91.35
2023-03-29T23:30:41.120Z,91.16
2023-03-29T23:33:07.843Z,91.60
2023-03-29T23:35:34.586Z,91.10
2023-03-29T23:38:01.149Z,91.01
2023-03-29T23:40:27.934Z,91.15
2023-03-29T23:43:00.521Z,90.48
2023-03-29T23:45:28.040Z,90.35
2023-03-29T23:47:56.107Z,90.32
2023-03-29T23:50:23.380Z,90.04
2023-03-29T23:52:51.496Z,89.92
2023-03-29T23:55:18.942Z,89.82
2023-03-29T23:57:45.704Z,89.14
